メインページ
METAR-TAF:

METAR-TAF

空港 :

リーブルヴィル, ガボン

リーブルヴィル国際空港

緯度: 00-27N, 経度: 009-25E, 海抜: 12m

現時点の気象観測

当レポートは32分前の01:00(UTC)に作成
西の風 5kt、西/南西から北西の間で変化する
気温 28°C
湿度 84%
気圧 1010 hPa
視程10km以上
高度1200ftの雲は散在している
高度2000ftの雲はほとんどない, 積乱雲.

METAR: FOOL 180100Z 28005KT 240V310 9999 SCT012 FEW020CB 28/25 Q1010 NOSIG

時間: 02:32 (01:32 UTC)

予報

当レポートは2時間32分前の23:00(UTC)に作成
予報は18日の 00時(UTC)から 20日の 06時(UTC)まで有効
西/南西の風 7kt
視程10km以上
高度1100ftの雲は散在している
高度2000ftの雲はほとんどない, 積乱雲.
高度3300ftの千切れ雲あり
18日の 01時(UTC)から 18日の 03時(UTC)まで一時的に
激しい雷雨
確率 30% :
18日の 04時(UTC)から 18日の 08時(UTC)まで一時的に
視程: 4000m
高度800ftの千切れ雲あり
高度1600ftの雲はほとんどない, 積乱雲.
激しい雷雨, 雨

TAF: FOOL 172300Z 1800/2006 24007KT 9999 SCT011 FEW020CB BKN033 TEMPO 1801/1803 TS PROB30 TEMPO 1804/1808 4000 TSRA BKN008 FEW016CB

4,000以上の空港の気象観測と天気予報(METAR報とTAF報)

利用可能な観測所は地図上に黄色い丸と赤い丸で示す。

丸の上にカーソルを重ねると観測所名を参照できる。

次にクリックすると気象観測と天気予報を参照できる。

マップの切り替え:黒色「×」印の緑ボタンをクリックして拡大、「-」印の緑ボタンをクリックして縮小、緑色の三角印をクリックして隣りの地図に切り替え


METAR-TAF: